createdAt,value
2017-09-12T00:00:25.457Z,92.35
2017-09-12T00:01:25.421Z,92.25
2017-09-12T00:02:25.474Z,92.25
2017-09-12T00:03:25.440Z,92.25
2017-09-12T00:04:26.509Z,92.45
2017-09-12T00:05:25.456Z,91.97
2017-09-12T00:06:25.493Z,92.64
2017-09-12T00:07:25.485Z,92.35
2017-09-12T00:08:26.539Z,92.45
2017-09-12T00:09:25.503Z,92.64
2017-09-12T00:10:25.705Z,92.54
2017-09-12T00:11:25.573Z,92.35
2017-09-12T00:12:26.564Z,92.54
2017-09-12T00:13:25.547Z,92.45
2017-09-12T00:14:25.656Z,92.45
2017-09-12T00:15:25.576Z,92.93
2017-09-12T00:16:25.669Z,92.45
2017-09-12T00:17:25.597Z,92.54
2017-09-12T00:18:25.682Z,92.54
2017-09-12T00:19:25.613Z,92.35
2017-09-12T00:20:27.742Z,92.45
2017-09-12T00:21:25.645Z,92.54
2017-09-12T00:22:25.709Z,92.74
2017-09-12T00:23:25.657Z,92.93
2017-09-12T00:24:25.751Z,92.83
2017-09-12T00:25:25.679Z,92.54
2017-09-12T00:26:25.736Z,92.74
2017-09-12T00:27:25.703Z,92.74
2017-09-12T00:28:25.752Z,92.74
2017-09-12T00:29:25.725Z,92.74
2017-09-12T00:30:26.788Z,92.83
2017-09-12T00:31:25.747Z,92.74
2017-09-12T00:32:25.775Z,92.35
2017-09-12T00:33:25.765Z,92.54
2017-09-12T00:34:25.894Z,92.54
2017-09-12T00:35:25.788Z,92.74
2017-09-12T00:36:25.911Z,92.83
2017-09-12T00:37:25.807Z,92.54
2017-09-12T00:38:25.997Z,92.74
2017-09-12T00:39:25.847Z,92.54
2017-09-12T00:40:25.931Z,92.64
2017-09-12T00:41:25.851Z,92.93
2017-09-12T00:42:25.947Z,93.02
2017-09-12T00:43:25.876Z,93.12
2017-09-12T00:44:25.965Z,92.83
2017-09-12T00:45:25.897Z,92.64
2017-09-12T00:46:25.975Z,92.83
2017-09-12T00:47:25.919Z,92.45
2017-09-12T00:48:28.586Z,92.93
2017-09-12T00:49:26.062Z,92.93
2017-09-12T00:50:25.952Z,93.60
2017-09-12T00:51:25.964Z,93.69
2017-09-12T00:52:25.970Z,93.31
2017-09-12T00:53:25.986Z,93.50
2017-09-12T00:54:25.994Z,93.50
2017-09-12T00:55:26.012Z,93.21
2017-09-12T00:56:26.018Z,93.50
2017-09-12T00:57:26.028Z,93.60
2017-09-12T00:58:26.040Z,93.12
2017-09-12T00:59:26.050Z,93.31
2017-09-12T01:00:26.067Z,93.21
2017-09-12T01:01:26.076Z,93.31
2017-09-12T01:02:27.165Z,93.31
2017-09-12T01:03:26.089Z,93.69
2017-09-12T01:04:27.278Z,93.88
2017-09-12T01:05:26.113Z,93.21
2017-09-12T01:06:26.127Z,93.12
2017-09-12T01:07:26.174Z,93.50
2017-09-12T01:08:26.146Z,93.60
2017-09-12T01:09:26.187Z,93.50
2017-09-12T01:10:26.165Z,93.12
2017-09-12T01:11:26.177Z,93.60
2017-09-12T01:12:26.192Z,94.07
2017-09-12T01:13:26.202Z,93.69
2017-09-12T01:14:26.211Z,93.79
2017-09-12T01:15:26.255Z,93.79
2017-09-12T01:16:26.234Z,93.21
2017-09-12T01:17:26.246Z,93.21
2017-09-12T01:18:26.256Z,93.31
2017-09-12T01:19:26.266Z,93.31
2017-09-12T01:20:26.274Z,93.21
2017-09-12T01:21:26.284Z,93.12
2017-09-12T01:22:26.307Z,93.69
2017-09-12T01:23:26.320Z,93.50
2017-09-12T01:24:26.317Z,93.12
2017-09-12T01:25:26.332Z,93.69
2017-09-12T01:26:26.407Z,93.31
2017-09-12T01:27:26.351Z,93.21
2017-09-12T01:28:27.447Z,93.50
2017-09-12T01:29:26.381Z,93.21
2017-09-12T01:30:26.385Z,93.21
2017-09-12T01:31:27.110Z,93.79
2017-09-12T01:32:26.402Z,93.50
2017-09-12T01:33:26.416Z,93.50
2017-09-12T01:34:26.430Z,93.31
2017-09-12T01:35:26.441Z,93.21
2017-09-12T01:36:26.448Z,93.69
2017-09-12T01:37:26.458Z,93.31
2017-09-12T01:38:26.466Z,93.69
2017-09-12T01:39:26.481Z,93.31
2017-09-12T01:40:26.490Z,93.69
2017-09-12T01:41:26.507Z,93.21
2017-09-12T01:42:26.514Z,93.21
2017-09-12T01:43:26.525Z,93.21
2017-09-12T01:44:26.534Z,93.69
2017-09-12T01:45:26.634Z,93.31
2017-09-12T01:46:26.567Z,93.31
2017-09-12T01:47:26.570Z,93.21
2017-09-12T01:48:26.588Z,93.31
2017-09-12T01:49:26.588Z,93.21
2017-09-12T01:50:26.608Z,93.31
2017-09-12T01:51:26.616Z,93.31
2017-09-12T01:52:26.625Z,93.50
2017-09-12T01:53:26.633Z,93.98
2017-09-12T01:54:26.637Z,93.60
2017-09-12T01:55:27.728Z,93.79
2017-09-12T01:56:26.660Z,93.88
2017-09-12T01:57:26.720Z,93.79
2017-09-12T01:58:26.680Z,93.88
2017-09-12T01:59:27.752Z,93.69
2017-09-12T02:00:26.705Z,93.79
2017-09-12T02:01:26.714Z,93.88
2017-09-12T02:02:26.720Z,93.69
2017-09-12T02:03:26.744Z,93.69
2017-09-12T02:04:26.753Z,93.79
2017-09-12T02:05:26.756Z,93.60
2017-09-12T02:06:26.767Z,93.79
2017-09-12T02:07:26.775Z,93.79
2017-09-12T02:08:26.790Z,93.79
2017-09-12T02:09:26.799Z,94.07
2017-09-12T02:10:26.813Z,93.79
2017-09-12T02:11:26.821Z,93.79
2017-09-12T02:12:26.841Z,93.79
2017-09-12T02:13:26.926Z,93.98
2017-09-12T02:14:26.858Z,93.79
2017-09-12T02:15:26.874Z,93.60
2017-09-12T02:16:26.947Z,93.79
2017-09-12T02:17:26.889Z,93.69
2017-09-12T02:18:27.987Z,93.60
2017-09-12T02:19:26.912Z,93.79
2017-09-12T02:20:26.915Z,93.79
2017-09-12T02:21:26.965Z,93.69
2017-09-12T02:22:26.990Z,93.60
2017-09-12T02:23:26.959Z,94.07
2017-09-12T02:24:26.963Z,94.07
2017-09-12T02:25:26.971Z,94.17
2017-09-12T02:26:26.982Z,93.98
2017-09-12T02:27:27.003Z,93.88
2017-09-12T02:28:27.008Z,93.79
2017-09-12T02:29:27.014Z,93.79
2017-09-12T02:30:27.023Z,93.98
2017-09-12T02:31:27.032Z,93.98
2017-09-12T02:32:27.046Z,94.17
2017-09-12T02:33:27.058Z,93.69
2017-09-12T02:34:27.065Z,93.60
2017-09-12T02:35:27.081Z,93.88
2017-09-12T02:36:27.096Z,93.88
2017-09-12T02:37:27.105Z,93.88
2017-09-12T02:38:27.111Z,93.79
2017-09-12T02:39:27.222Z,94.07
2017-09-12T02:40:27.133Z,93.79
2017-09-12T02:41:27.228Z,93.79
2017-09-12T02:42:27.157Z,93.60
2017-09-12T02:43:27.165Z,93.79
2017-09-12T02:44:27.174Z,93.60
2017-09-12T02:45:27.181Z,93.69
2017-09-12T02:46:27.195Z,94.17
2017-09-12T02:47:27.212Z,93.79
2017-09-12T02:48:27.228Z,94.07
2017-09-12T02:49:27.386Z,93.79
2017-09-12T02:50:27.243Z,93.60
2017-09-12T02:51:27.250Z,93.69
2017-09-12T02:52:27.254Z,93.60
2017-09-12T02:53:27.266Z,93.79
2017-09-12T02:54:27.284Z,94.07
2017-09-12T02:55:27.311Z,93.50
2017-09-12T02:56:27.432Z,93.98
2017-09-12T02:57:27.309Z,93.69
2017-09-12T02:58:27.442Z,93.98
2017-09-12T02:59:27.332Z,93.79
2017-09-12T03:00:27.342Z,93.31
2017-09-12T03:01:27.467Z,93.31
2017-09-12T03:02:27.374Z,93.31
2017-09-12T03:03:27.376Z,93.21
2017-09-12T03:04:27.382Z,93.31
2017-09-12T03:05:27.397Z,93.98
2017-09-12T03:06:27.408Z,94.07
2017-09-12T03:07:27.502Z,93.98
2017-09-12T03:08:27.428Z,93.31
2017-09-12T03:09:27.436Z,94.07
2017-09-12T03:10:28.555Z,94.07
2017-09-12T03:11:27.457Z,93.98
2017-09-12T03:12:27.467Z,93.98
2017-09-12T03:13:27.484Z,93.98
2017-09-12T03:14:33.234Z,93.60
2017-09-12T03:15:27.504Z,93.98
2017-09-12T03:16:27.618Z,93.98
2017-09-12T03:17:27.523Z,93.60
2017-09-12T03:18:27.636Z,93.69
2017-09-12T03:19:27.550Z,93.69
2017-09-12T03:20:27.653Z,93.69
2017-09-12T03:21:27.574Z,93.98
2017-09-12T03:22:27.666Z,93.69
2017-09-12T03:23:27.585Z,93.60
2017-09-12T03:24:27.676Z,93.79
2017-09-12T03:25:27.608Z,93.88
2017-09-12T03:26:27.688Z,94.12
2017-09-12T03:27:27.637Z,93.69
2017-09-12T03:28:27.702Z,94.46
2017-09-12T03:29:27.658Z,94.55
2017-09-12T03:30:27.719Z,94.41
2017-09-12T03:31:27.676Z,94.60
2017-09-12T03:32:27.730Z,94.51
2017-09-12T03:33:27.694Z,94.70
2017-09-12T03:34:27.742Z,94.51
2017-09-12T03:35:27.716Z,94.31
2017-09-12T03:36:27.753Z,94.31
2017-09-12T03:37:27.739Z,94.31
2017-09-12T03:38:27.872Z,94.31
2017-09-12T03:39:27.774Z,94.41
2017-09-12T03:40:27.883Z,94.12
2017-09-12T03:41:27.772Z,94.31
2017-09-12T03:42:27.924Z,94.22
2017-09-12T03:43:27.801Z,94.51
2017-09-12T03:44:27.923Z,94.31
2017-09-12T03:45:27.821Z,94.51
2017-09-12T03:46:27.927Z,94.70
2017-09-12T03:47:27.836Z,94.60
2017-09-12T03:48:27.938Z,94.60
2017-09-12T03:49:27.857Z,94.60
2017-09-12T03:50:27.962Z,94.60
2017-09-12T03:51:27.886Z,94.60
2017-09-12T03:52:28.989Z,94.51
2017-09-12T03:53:27.903Z,94.51
2017-09-12T03:54:27.978Z,94.60
2017-09-12T03:55:27.927Z,94.41
2017-09-12T03:56:27.993Z,94.60
2017-09-12T03:57:27.950Z,94.60
2017-09-12T03:58:28.004Z,94.41
2017-09-12T03:59:27.965Z,94.41
2017-09-12T04:00:28.018Z,94.60
2017-09-12T04:01:27.990Z,94.41
2017-09-12T04:02:28.135Z,94.41
2017-09-12T04:03:28.012Z,93.74
2017-09-12T04:04:28.147Z,93.84
2017-09-12T04:05:29.674Z,93.74
2017-09-12T04:06:43.715Z,93.74
2017-09-12T04:07:28.050Z,93.65
2017-09-12T04:08:30.114Z,93.55
2017-09-12T04:09:28.071Z,93.55
2017-09-12T04:10:32.795Z,93.65
2017-09-12T04:11:28.088Z,93.74
2017-09-12T04:12:28.193Z,93.74
2017-09-12T04:13:28.120Z,93.74
2017-09-12T04:14:28.210Z,93.65
2017-09-12T04:15:28.135Z,93.74
2017-09-12T04:16:28.226Z,93.74
2017-09-12T04:17:28.159Z,93.55
2017-09-12T04:18:30.281Z,93.55
2017-09-12T04:19:28.180Z,94.60
2017-09-12T04:20:30.311Z,94.31
2017-09-12T04:21:28.201Z,94.51
2017-09-12T04:22:35.226Z,94.41
2017-09-12T04:23:28.220Z,94.22
2017-09-12T04:24:28.274Z,94.60
2017-09-12T04:25:28.247Z,94.79
2017-09-12T04:26:34.260Z,94.60
2017-09-12T04:27:28.284Z,94.60
2017-09-12T04:28:35.168Z,95.27
2017-09-12T04:29:28.285Z,94.98
2017-09-12T04:30:28.420Z,95.27
2017-09-12T04:31:28.305Z,94.98
2017-09-12T04:32:28.448Z,95.27
2017-09-12T04:33:28.317Z,95.36
2017-09-12T04:34:29.575Z,95.17
2017-09-12T04:35:28.353Z,95.17
2017-09-12T04:36:28.369Z,95.46
2017-09-12T04:37:30.420Z,95.27
2017-09-12T04:38:28.369Z,95.94
2017-09-12T04:39:29.506Z,96.22
2017-09-12T04:40:28.394Z,96.03
2017-09-12T04:41:45.291Z,95.94
2017-09-12T04:42:28.436Z,96.13
2017-09-12T04:43:29.536Z,95.94
2017-09-12T04:44:28.451Z,96.70
2017-09-12T04:45:30.572Z,95.94
2017-09-12T04:46:28.459Z,96.42
2017-09-12T04:47:35.203Z,96.22
2017-09-12T04:48:28.477Z,96.70
2017-09-12T04:49:28.551Z,96.51
2017-09-12T04:50:28.504Z,96.89
2017-09-12T04:51:30.609Z,96.89
2017-09-12T04:52:28.523Z,96.89
2017-09-12T04:53:33.291Z,96.89
2017-09-12T04:54:28.543Z,96.89
2017-09-12T04:55:28.690Z,97.75
2017-09-12T04:56:28.564Z,97.56
2017-09-12T04:57:28.703Z,97.47
2017-09-12T04:58:28.583Z,97.56
2017-09-12T04:59:28.724Z,97.28
2017-09-12T05:00:28.602Z,97.08
2017-09-12T05:01:28.732Z,97.75
2017-09-12T05:02:28.625Z,97.18
2017-09-12T05:03:28.771Z,97.37
2017-09-12T05:04:28.647Z,97.66
2017-09-12T05:05:28.760Z,97.28
2017-09-12T05:06:28.664Z,97.18
2017-09-12T05:07:28.777Z,97.75
2017-09-12T05:08:28.690Z,97.75
2017-09-12T05:09:39.743Z,97.56
2017-09-12T05:10:28.708Z,98.04
2017-09-12T05:11:28.802Z,98.04
2017-09-12T05:12:28.728Z,98.23
2017-09-12T05:13:30.865Z,98.04
2017-09-12T05:14:28.758Z,97.66
2017-09-12T05:15:39.782Z,98.33
2017-09-12T05:16:28.770Z,98.42
2017-09-12T05:17:33.776Z,97.94
2017-09-12T05:18:28.791Z,98.13
2017-09-12T05:19:29.019Z,98.23
2017-09-12T05:20:28.819Z,98.23
2017-09-12T05:21:28.842Z,98.23
2017-09-12T05:22:28.839Z,98.13
2017-09-12T05:23:28.846Z,98.33
2017-09-12T05:24:28.858Z,97.94
2017-09-12T05:25:28.963Z,98.61
2017-09-12T05:26:28.870Z,98.04
2017-09-12T05:27:31.024Z,98.23
2017-09-12T05:28:28.890Z,98.33
2017-09-12T05:29:28.908Z,98.42
2017-09-12T05:30:28.914Z,98.71
2017-09-12T05:31:28.925Z,98.80
2017-09-12T05:32:28.937Z,98.61
2017-09-12T05:33:28.944Z,98.94
2017-09-12T05:34:28.957Z,98.94
2017-09-12T05:35:28.965Z,98.90
2017-09-12T05:36:28.983Z,98.90
2017-09-12T05:37:28.983Z,98.85
2017-09-12T05:38:28.997Z,98.75
2017-09-12T05:39:29.003Z,99.14
2017-09-12T05:40:29.021Z,98.94
2017-09-12T05:41:29.072Z,99.23
2017-09-12T05:42:29.046Z,99.23
2017-09-12T05:43:29.048Z,99.33
2017-09-12T05:44:29.060Z,99.43
2017-09-12T05:45:29.201Z,99.04
2017-09-12T05:46:29.074Z,99.04
2017-09-12T05:47:29.212Z,99.33
2017-09-12T05:48:29.097Z,99.04
2017-09-12T05:49:29.225Z,99.33
2017-09-12T05:50:29.118Z,98.99
2017-09-12T05:51:29.240Z,99.33
2017-09-12T05:52:29.145Z,99.95
2017-09-12T05:53:29.149Z,99.99
2017-09-12T05:54:29.164Z,99.99
2017-09-12T05:55:29.172Z,99.95
2017-09-12T05:56:29.265Z,99.85
2017-09-12T05:57:29.190Z,99.80
2017-09-12T05:58:29.201Z,99.99
2017-09-12T05:59:29.214Z,99.80
2017-09-12T06:00:35.231Z,99.80
2017-09-12T06:01:29.231Z,99.71
2017-09-12T06:02:30.325Z,99.80
2017-09-12T06:03:29.270Z,99.62
2017-09-12T06:04:29.319Z,99.90
2017-09-12T06:05:29.277Z,99.99
2017-09-12T06:06:29.314Z,99.80
2017-09-12T06:07:29.304Z,99.99
2017-09-12T06:08:29.345Z,99.99
2017-09-12T06:09:29.312Z,99.99
2017-09-12T06:10:29.361Z,99.99
2017-09-12T06:11:29.337Z,99.66
2017-09-12T06:12:29.354Z,99.76
2017-09-12T06:13:29.354Z,99.95
2017-09-12T06:14:29.486Z,99.09
2017-09-12T06:15:29.378Z,99.19
2017-09-12T06:16:29.498Z,98.99
2017-09-12T06:17:29.398Z,99.09
2017-09-12T06:18:29.413Z,98.99
2017-09-12T06:19:29.521Z,98.80
2017-09-12T06:20:29.431Z,99.09
2017-09-12T06:21:29.531Z,98.99
2017-09-12T06:22:29.450Z,98.75
2017-09-12T06:23:29.549Z,99.04
2017-09-12T06:24:29.478Z,98.85
2017-09-12T06:25:29.557Z,98.66
2017-09-12T06:26:29.496Z,98.57
2017-09-12T06:27:29.571Z,98.47
2017-09-12T06:28:29.522Z,98.38
2017-09-12T06:29:29.604Z,97.99
2017-09-12T06:30:29.537Z,98.18
2017-09-12T06:31:29.536Z,98.28
2017-09-12T06:32:29.552Z,98.47
2017-09-12T06:33:29.613Z,98.42
2017-09-12T06:34:29.578Z,98.13
2017-09-12T06:35:29.638Z,98.61
2017-09-12T06:36:29.596Z,98.52
2017-09-12T06:37:29.598Z,98.80
2017-09-12T06:38:29.649Z,98.80
2017-09-12T06:39:29.619Z,98.99
2017-09-12T06:40:29.771Z,98.80
2017-09-12T06:41:29.646Z,98.80
2017-09-12T06:42:29.777Z,99.19
2017-09-12T06:43:29.669Z,98.80
2017-09-12T06:44:29.789Z,99.14
2017-09-12T06:45:29.708Z,98.75
2017-09-12T06:46:29.806Z,98.47
2017-09-12T06:47:29.711Z,98.18
2017-09-12T06:48:29.709Z,98.38
2017-09-12T06:49:29.728Z,98.28
2017-09-12T06:50:29.734Z,97.90
2017-09-12T06:51:29.746Z,97.80
2017-09-12T06:52:29.761Z,97.52
2017-09-12T06:53:29.850Z,97.52
2017-09-12T06:54:29.783Z,97.71
2017-09-12T06:55:29.865Z,97.66
2017-09-12T06:56:29.829Z,97.85
2017-09-12T06:57:29.877Z,97.37
2017-09-12T06:58:29.815Z,97.47
2017-09-12T06:59:29.826Z,97.56
2017-09-12T07:00:29.840Z,97.47
2017-09-12T07:01:29.847Z,97.56
2017-09-12T07:02:29.914Z,97.08
2017-09-12T07:03:29.869Z,96.99
2017-09-12T07:04:29.931Z,96.99
2017-09-12T07:05:29.898Z,96.32
2017-09-12T07:06:29.911Z,96.61
2017-09-12T07:07:29.935Z,96.89
2017-09-12T07:08:29.932Z,96.80
2017-09-12T07:09:29.972Z,96.51
2017-09-12T07:10:29.962Z,96.03
2017-09-12T07:11:29.958Z,96.03
2017-09-12T07:12:29.962Z,96.61
2017-09-12T07:13:29.991Z,96.56
2017-09-12T07:14:29.986Z,96.27
2017-09-12T07:15:29.996Z,95.70
2017-09-12T07:16:30.141Z,95.61
2017-09-12T07:17:30.015Z,95.41
2017-09-12T07:18:30.147Z,95.03
2017-09-12T07:19:30.049Z,94.74
2017-09-12T07:20:30.052Z,95.12
2017-09-12T07:21:30.057Z,94.36
2017-09-12T07:22:30.070Z,94.36
2017-09-12T07:23:30.072Z,95.12
2017-09-12T07:24:30.083Z,94.84
2017-09-12T07:25:30.098Z,94.74
2017-09-12T07:26:30.106Z,95.03
2017-09-12T07:27:30.116Z,95.12
2017-09-12T07:28:30.129Z,95.07
2017-09-12T07:29:30.133Z,95.65
2017-09-12T07:30:30.141Z,95.56
2017-09-12T07:31:30.152Z,95.65
2017-09-12T07:32:30.163Z,95.36
2017-09-12T07:33:30.724Z,95.56
2017-09-12T07:34:30.188Z,95.36
2017-09-12T07:35:30.722Z,95.56
2017-09-12T07:36:30.212Z,95.36
2017-09-12T07:37:30.216Z,95.46
2017-09-12T07:38:30.245Z,95.56
2017-09-12T07:39:30.267Z,95.36
2017-09-12T07:40:30.265Z,95.56
2017-09-12T07:41:30.277Z,95.65
2017-09-12T07:42:30.402Z,95.46
2017-09-12T07:43:30.282Z,95.31
2017-09-12T07:44:30.408Z,95.51
2017-09-12T07:45:30.298Z,95.22
2017-09-12T07:46:30.430Z,95.41
2017-09-12T07:47:30.323Z,94.65
2017-09-12T07:48:31.228Z,95.31
2017-09-12T07:49:30.342Z,95.12
2017-09-12T07:50:30.352Z,95.31
2017-09-12T07:51:30.359Z,94.84
2017-09-12T07:52:30.373Z,94.84
2017-09-12T07:53:30.463Z,95.03
2017-09-12T07:54:30.423Z,94.65
2017-09-12T07:55:30.473Z,94.74
2017-09-12T07:56:30.408Z,93.98
2017-09-12T07:57:30.492Z,93.64
2017-09-12T07:58:30.431Z,94.02
2017-09-12T07:59:30.444Z,93.83
2017-09-12T08:00:30.448Z,93.74
2017-09-12T08:01:30.519Z,93.93
2017-09-12T08:02:30.476Z,92.87
2017-09-12T08:03:30.542Z,92.97
2017-09-12T08:04:30.490Z,93.07
2017-09-12T08:05:30.542Z,92.40
2017-09-12T08:06:30.512Z,92.68
2017-09-12T08:07:30.564Z,92.87
2017-09-12T08:08:30.537Z,92.78
2017-09-12T08:09:30.571Z,92.40
2017-09-12T08:10:30.553Z,92.44
2017-09-12T08:11:30.586Z,92.15
2017-09-12T08:12:30.579Z,91.96
2017-09-12T08:13:30.582Z,91.96
2017-09-12T08:14:30.599Z,92.06
2017-09-12T08:15:30.715Z,92.15
2017-09-12T08:16:30.615Z,91.77
2017-09-12T08:17:30.728Z,92.35
2017-09-12T08:18:30.635Z,91.19
2017-09-12T08:19:31.669Z,91.39
2017-09-12T08:20:30.655Z,91.77
2017-09-12T08:21:31.776Z,91.34
2017-09-12T08:22:30.678Z,91.63
2017-09-12T08:23:30.770Z,91.15
2017-09-12T08:24:30.709Z,91.72
2017-09-12T08:25:30.793Z,92.11
2017-09-12T08:26:30.716Z,91.53
2017-09-12T08:27:30.801Z,91.25
2017-09-12T08:28:30.742Z,91.44
2017-09-12T08:29:30.748Z,91.15
2017-09-12T08:30:30.761Z,91.63
2017-09-12T08:31:30.773Z,91.10
2017-09-12T08:32:30.783Z,91.00
2017-09-12T08:33:30.791Z,91.19
2017-09-12T08:34:30.800Z,90.23
2017-09-12T08:35:30.856Z,90.38
2017-09-12T08:36:30.821Z,89.90
2017-09-12T08:37:30.828Z,90.47
2017-09-12T08:38:31.894Z,89.42
2017-09-12T08:39:30.852Z,89.32
2017-09-12T08:40:30.872Z,89.13
2017-09-12T08:41:30.879Z,88.75
2017-09-12T08:42:30.898Z,88.56
2017-09-12T08:43:30.913Z,88.84
2017-09-12T08:44:30.912Z,88.94
2017-09-12T08:45:30.944Z,88.56
2017-09-12T08:46:31.040Z,88.46
2017-09-12T08:47:30.943Z,88.17
2017-09-12T08:48:30.962Z,87.41
2017-09-12T08:49:30.952Z,87.88
2017-09-12T08:50:30.968Z,87.31
2017-09-12T08:51:31.050Z,87.50
2017-09-12T08:52:30.982Z,88.08
2017-09-12T08:53:31.078Z,88.17
2017-09-12T08:54:31.013Z,88.08
2017-09-12T08:55:31.017Z,87.79
2017-09-12T08:56:31.023Z,87.50
2017-09-12T08:57:31.042Z,87.50
2017-09-12T08:58:31.047Z,87.31
2017-09-12T08:59:31.059Z,87.21
2017-09-12T09:00:31.067Z,87.21
2017-09-12T09:01:31.085Z,86.49
2017-09-12T09:02:31.088Z,86.97
2017-09-12T09:03:31.102Z,86.54
2017-09-12T09:04:31.109Z,86.54
2017-09-12T09:05:31.167Z,86.74
2017-09-12T09:06:31.123Z,86.64
2017-09-12T09:07:31.138Z,86.83
2017-09-12T09:08:31.144Z,87.65
2017-09-12T09:09:31.158Z,87.37
2017-09-12T09:10:31.166Z,87.08
2017-09-12T09:11:31.179Z,87.74
2017-09-12T09:12:31.184Z,87.17
2017-09-12T09:13:31.194Z,86.79
2017-09-12T09:14:31.209Z,86.69
2017-09-12T09:15:31.226Z,86.79
2017-09-12T09:16:31.232Z,87.74
2017-09-12T09:17:31.347Z,87.55
2017-09-12T09:18:31.255Z,87.65
2017-09-12T09:19:31.255Z,87.31
2017-09-12T09:20:31.275Z,86.83
2017-09-12T09:21:32.394Z,86.16
2017-09-12T09:22:31.302Z,86.11
2017-09-12T09:23:31.306Z,85.92
2017-09-12T09:24:31.331Z,86.15
2017-09-12T09:25:31.321Z,85.28
2017-09-12T09:26:31.333Z,84.91
2017-09-12T09:27:31.409Z,84.52
2017-09-12T09:28:31.357Z,84.61
2017-09-12T09:29:31.423Z,83.98
2017-09-12T09:30:31.377Z,83.70
2017-09-12T09:31:31.394Z,83.31
2017-09-12T09:32:31.398Z,83.22
2017-09-12T09:33:31.409Z,83.51
2017-09-12T09:34:31.417Z,83.27
2017-09-12T09:35:31.432Z,82.89
2017-09-12T09:36:31.442Z,82.51
2017-09-12T09:37:31.449Z,82.41
2017-09-12T09:38:31.463Z,82.70
2017-09-12T09:39:31.479Z,82.26
2017-09-12T09:40:43.318Z,82.54
2017-09-12T09:41:31.527Z,81.78
2017-09-12T09:42:36.355Z,82.07
2017-09-12T09:43:31.514Z,81.68
2017-09-12T09:44:32.574Z,81.97
2017-09-12T09:45:31.543Z,82.10
2017-09-12T09:46:32.584Z,81.97
2017-09-12T09:47:31.556Z,82.10
2017-09-12T09:48:33.645Z,82.01
2017-09-12T09:49:31.577Z,81.92
2017-09-12T09:50:31.612Z,82.07
2017-09-12T09:51:31.599Z,81.78
2017-09-12T09:52:31.627Z,81.93
2017-09-12T09:53:31.638Z,81.84
2017-09-12T09:54:31.627Z,82.03
2017-09-12T09:55:32.672Z,80.97
2017-09-12T09:56:31.663Z,81.59
2017-09-12T09:57:31.765Z,81.30
2017-09-12T09:58:31.674Z,80.91
2017-09-12T09:59:31.686Z,80.96
2017-09-12T10:00:31.694Z,80.96
2017-09-12T10:01:31.707Z,80.76
2017-09-12T10:02:31.722Z,80.34
2017-09-12T10:03:31.730Z,80.43
2017-09-12T10:04:31.737Z,80.76
2017-09-12T10:05:31.748Z,80.09
2017-09-12T10:06:31.760Z,80.73
2017-09-12T10:07:31.769Z,80.73
2017-09-12T10:08:31.782Z,80.38
2017-09-12T10:09:31.792Z,80.47
2017-09-12T10:10:32.884Z,80.66
2017-09-12T10:11:31.834Z,80.47
2017-09-12T10:12:33.920Z,79.90
2017-09-12T10:13:31.851Z,79.80
2017-09-12T10:14:32.902Z,79.32
2017-09-12T10:15:31.855Z,79.13
2017-09-12T10:16:31.867Z,79.07
2017-09-12T10:17:31.878Z,78.59
2017-09-12T10:18:31.886Z,78.50
2017-09-12T10:19:31.899Z,77.83
2017-09-12T10:20:31.912Z,77.63
2017-09-12T10:21:31.922Z,77.92
2017-09-12T10:22:31.931Z,77.25
2017-09-12T10:23:31.949Z,76.96
2017-09-12T10:24:31.951Z,76.67
2017-09-12T10:25:31.972Z,76.86
2017-09-12T10:26:31.980Z,77.34
2017-09-12T10:27:31.997Z,77.73
2017-09-12T10:28:32.078Z,78.02
2017-09-12T10:29:32.007Z,77.83
2017-09-12T10:30:32.091Z,78.30
2017-09-12T10:31:32.033Z,77.69
2017-09-12T10:32:32.040Z,77.78
2017-09-12T10:33:32.055Z,77.50
2017-09-12T10:34:32.065Z,77.59
2017-09-12T10:35:32.174Z,76.25
2017-09-12T10:36:32.094Z,76.29
2017-09-12T10:37:32.097Z,76.29
2017-09-12T10:38:33.167Z,75.13
2017-09-12T10:39:32.189Z,74.17
2017-09-12T10:40:32.127Z,74.27
2017-09-12T10:41:33.186Z,74.75
2017-09-12T10:42:32.158Z,75.17
2017-09-12T10:43:32.166Z,75.56
2017-09-12T10:44:32.183Z,75.56
2017-09-12T10:45:32.292Z,75.56
2017-09-12T10:46:32.197Z,74.79
2017-09-12T10:47:32.208Z,74.88
2017-09-12T10:48:32.218Z,74.88
2017-09-12T10:49:32.243Z,75.13
2017-09-12T10:50:32.247Z,75.23
2017-09-12T10:51:32.256Z,75.52
2017-09-12T10:52:32.345Z,75.32
2017-09-12T10:53:32.272Z,74.75
2017-09-12T10:54:32.284Z,73.69
2017-09-12T10:55:33.389Z,72.64
2017-09-12T10:56:32.385Z,72.54
2017-09-12T10:57:32.377Z,72.25
2017-09-12T10:58:32.332Z,72.34
2017-09-12T10:59:33.415Z,72.54
2017-09-12T11:00:32.355Z,72.67
2017-09-12T11:01:32.406Z,73.15
2017-09-12T11:02:32.377Z,72.96
2017-09-12T11:03:32.388Z,72.38
2017-09-12T11:04:32.397Z,72.58
2017-09-12T11:05:32.429Z,72.58
2017-09-12T11:06:32.420Z,72.92
2017-09-12T11:07:32.546Z,73.02
2017-09-12T11:08:32.442Z,73.69
2017-09-12T11:09:32.558Z,73.98
2017-09-12T11:10:32.465Z,74.46
2017-09-12T11:11:32.482Z,75.23
2017-09-12T11:12:32.487Z,75.52
2017-09-12T11:13:32.592Z,75.52
2017-09-12T11:14:32.510Z,75.62
2017-09-12T11:15:32.599Z,76.09
2017-09-12T11:16:32.529Z,76.00
2017-09-12T11:17:32.613Z,75.90
2017-09-12T11:18:32.556Z,75.71
2017-09-12T11:19:32.566Z,75.13
2017-09-12T11:20:32.633Z,74.75
2017-09-12T11:21:32.590Z,74.75
2017-09-12T11:22:32.645Z,74.65
2017-09-12T11:23:32.614Z,73.88
2017-09-12T11:24:32.665Z,74.08
2017-09-12T11:25:32.651Z,74.08
2017-09-12T11:26:32.672Z,73.11
2017-09-12T11:27:32.662Z,72.48
2017-09-12T11:28:32.687Z,72.19
2017-09-12T11:29:32.676Z,72.19
2017-09-12T11:30:32.803Z,71.26
2017-09-12T11:31:32.719Z,70.59
2017-09-12T11:32:32.823Z,70.11
2017-09-12T11:33:32.739Z,70.01
2017-09-12T11:34:32.846Z,70.50
2017-09-12T11:35:32.751Z,70.40
2017-09-12T11:36:32.844Z,70.11
2017-09-12T11:37:32.775Z,69.24
2017-09-12T11:38:32.857Z,69.53
2017-09-12T11:39:32.795Z,70.01
2017-09-12T11:40:32.875Z,70.30
2017-09-12T11:41:32.818Z,70.88
2017-09-12T11:42:32.886Z,70.88
2017-09-12T11:43:32.841Z,71.65
2017-09-12T11:44:32.895Z,71.84
2017-09-12T11:45:32.861Z,72.42
2017-09-12T11:46:32.911Z,72.90
2017-09-12T11:47:32.896Z,72.61
2017-09-12T11:48:34.019Z,72.61
2017-09-12T11:49:32.916Z,72.77
2017-09-12T11:50:32.980Z,72.67
2017-09-12T11:51:32.931Z,72.67
2017-09-12T11:52:34.012Z,72.19
2017-09-12T11:53:32.953Z,72.38
2017-09-12T11:54:33.003Z,72.19
2017-09-12T11:55:33.030Z,72.38
2017-09-12T11:56:33.015Z,72.29
2017-09-12T11:57:32.997Z,72.29
2017-09-12T11:58:33.335Z,72.38
2017-09-12T11:59:33.027Z,72.48
2017-09-12T12:00:34.069Z,72.48
2017-09-12T12:01:33.074Z,72.86
2017-09-12T12:02:34.082Z,71.91
2017-09-12T12:03:33.074Z,71.26
2017-09-12T12:04:33.176Z,71.17
2017-09-12T12:05:33.093Z,70.68
2017-09-12T12:06:33.183Z,70.34
2017-09-12T12:07:33.118Z,69.95
2017-09-12T12:08:33.198Z,69.60
2017-09-12T12:09:33.139Z,69.51
2017-09-12T12:10:33.215Z,69.31
2017-09-12T12:11:33.173Z,69.60
2017-09-12T12:12:33.232Z,68.29
2017-09-12T12:13:33.189Z,67.71
2017-09-12T12:14:33.213Z,67.23
2017-09-12T12:15:35.305Z,66.55
2017-09-12T12:16:33.224Z,66.46
2017-09-12T12:17:33.260Z,66.55
2017-09-12T12:18:33.249Z,66.36
2017-09-12T12:19:33.278Z,64.50
2017-09-12T12:20:33.275Z,65.46
2017-09-12T12:21:34.312Z,65.81
2017-09-12T12:22:33.301Z,66.49
2017-09-12T12:23:33.409Z,66.78
2017-09-12T12:24:33.323Z,67.22
2017-09-12T12:25:33.416Z,66.46
2017-09-12T12:26:33.342Z,67.71
2017-09-12T12:27:33.432Z,68.38
2017-09-12T12:28:33.366Z,68.86
2017-09-12T12:29:33.375Z,69.15
2017-09-12T12:30:33.448Z,68.86
2017-09-12T12:31:33.401Z,69.15
2017-09-12T12:32:33.469Z,68.76
2017-09-12T12:33:33.424Z,68.09
2017-09-12T12:34:35.529Z,68.29
2017-09-12T12:35:33.452Z,67.93
2017-09-12T12:36:33.493Z,67.93
2017-09-12T12:37:33.473Z,67.45
2017-09-12T12:38:33.505Z,66.58
2017-09-12T12:39:33.499Z,65.14
2017-09-12T12:40:38.334Z,64.56
2017-09-12T12:41:33.522Z,64.66
2017-09-12T12:42:35.584Z,64.08
2017-09-12T12:43:33.556Z,63.60
2017-09-12T12:44:38.359Z,63.25
2017-09-12T12:45:33.576Z,62.87
2017-09-12T12:46:38.403Z,62.67
2017-09-12T12:47:33.611Z,62.96
2017-09-12T12:48:34.705Z,63.34
2017-09-12T12:49:33.708Z,63.06
2017-09-12T12:50:35.745Z,63.15
2017-09-12T12:51:33.654Z,62.93
2017-09-12T12:52:33.708Z,62.64